メインページ
METAR-TAF:

METAR-TAF

空港 :

ラパス, メキシコ

緯度: 24-04N, 経度: 110-22W, 海抜: 21m

現時点の気象観測

当レポートは7時間21分前の05:40(UTC)に作成
北/北東の風 6kt
気温 20°C
湿度 78%
気圧 1018 hPa
視程: 16.1km
晴天

METAR: MMLP 100540Z 03006KT 10SM SKC 20/16 A3006 RMK SLP179 52001 976

時間: 06:01 (13:01 UTC)

予報

当レポートは8時間33分前の04:28(UTC)に作成
予報は10日の 06時(UTC)から 11日の 06時(UTC)まで有効
北東の風 7kt
視程: 10km
晴天
10日の 1800時(UTC)から
北/北東の風 14kt
視程: 10km
高度2000ftの雲は散在している
高度25000ftの雲は散在している
11日の 0500時(UTC)から
北/北東の風 7kt
視程: 10km
晴天

TAF: MMLP 100428Z 1006/1106 04007KT P6SM SKC FM101800 02014KT P6SM SCT020 SCT250 FM110500 02007KT P6SM SKC

4,000以上の空港の気象観測と天気予報(METAR報とTAF報)

利用可能な観測所は地図上に黄色い丸と赤い丸で示す。

丸の上にカーソルを重ねると観測所名を参照できる。

次にクリックすると気象観測と天気予報を参照できる。

マップの切り替え:黒色「×」印の緑ボタンをクリックして拡大、「-」印の緑ボタンをクリックして縮小、緑色の三角印をクリックして隣りの地図に切り替え


METAR-TAF: